sensor_id;sensor_type;location;lat;lon;timestamp;P1;durP1;ratioP1;P2;durP2;ratioP2
22646;SDS011;11490;42.726;23.268;2023-02-22T00:00:35;8.98;;;5.93;;
22646;SDS011;11490;42.726;23.268;2023-02-22T00:03:08;8.90;;;5.03;;
22646;SDS011;11490;42.726;23.268;2023-02-22T00:05:40;6.88;;;4.72;;
22646;SDS011;11490;42.726;23.268;2023-02-22T00:08:14;7.18;;;4.45;;
22646;SDS011;11490;42.726;23.268;2023-02-22T00:10:42;6.32;;;4.25;;
22646;SDS011;11490;42.726;23.268;2023-02-22T00:13:08;5.60;;;4.30;;
22646;SDS011;11490;42.726;23.268;2023-02-22T00:15:37;8.40;;;5.15;;
22646;SDS011;11490;42.726;23.268;2023-02-22T00:18:05;7.88;;;5.03;;
22646;SDS011;11490;42.726;23.268;2023-02-22T00:20:34;8.43;;;5.82;;
22646;SDS011;11490;42.726;23.268;2023-02-22T00:23:03;16.23;;;6.30;;
22646;SDS011;11490;42.726;23.268;2023-02-22T00:25:31;12.73;;;8.05;;
22646;SDS011;11490;42.726;23.268;2023-02-22T00:27:57;18.33;;;8.98;;
22646;SDS011;11490;42.726;23.268;2023-02-22T00:30:24;15.88;;;10.02;;
22646;SDS011;11490;42.726;23.268;2023-02-22T00:32:52;18.65;;;7.45;;
22646;SDS011;11490;42.726;23.268;2023-02-22T00:35:20;12.68;;;7.82;;
22646;SDS011;11490;42.726;23.268;2023-02-22T00:37:48;9.80;;;5.95;;
22646;SDS011;11490;42.726;23.268;2023-02-22T00:40:16;17.95;;;6.57;;
22646;SDS011;11490;42.726;23.268;2023-02-22T00:42:43;9.95;;;6.07;;
22646;SDS011;11490;42.726;23.268;2023-02-22T00:45:10;8.13;;;5.35;;
22646;SDS011;11490;42.726;23.268;2023-02-22T00:47:36;15.88;;;6.38;;
22646;SDS011;11490;42.726;23.268;2023-02-22T00:50:02;10.05;;;6.13;;
22646;SDS011;11490;42.726;23.268;2023-02-22T00:52:28;8.75;;;5.55;;
22646;SDS011;11490;42.726;23.268;2023-02-22T00:54:54;9.45;;;5.50;;
22646;SDS011;11490;42.726;23.268;2023-02-22T00:57:21;12.70;;;6.45;;
22646;SDS011;11490;42.726;23.268;2023-02-22T00:59:47;10.13;;;5.90;;
22646;SDS011;11490;42.726;23.268;2023-02-22T01:02:12;9.27;;;4.95;;
22646;SDS011;11490;42.726;23.268;2023-02-22T01:04:38;7.55;;;5.10;;
22646;SDS011;11490;42.726;23.268;2023-02-22T01:07:04;8.70;;;5.55;;
22646;SDS011;11490;42.726;23.268;2023-02-22T01:09:29;10.85;;;5.70;;
22646;SDS011;11490;42.726;23.268;2023-02-22T01:11:55;8.48;;;5.40;;
22646;SDS011;11490;42.726;23.268;2023-02-22T01:14:21;16.05;;;5.72;;
22646;SDS011;11490;42.726;23.268;2023-02-22T01:16:48;9.13;;;5.07;;
22646;SDS011;11490;42.726;23.268;2023-02-22T01:19:14;7.35;;;4.78;;
22646;SDS011;11490;42.726;23.268;2023-02-22T01:21:40;12.05;;;6.90;;
22646;SDS011;11490;42.726;23.268;2023-02-22T01:24:06;7.10;;;5.05;;
22646;SDS011;11490;42.726;23.268;2023-02-22T01:26:31;11.40;;;6.70;;
22646;SDS011;11490;42.726;23.268;2023-02-22T01:28:57;13.15;;;6.32;;
22646;SDS011;11490;42.726;23.268;2023-02-22T01:31:22;14.38;;;8.07;;
22646;SDS011;11490;42.726;23.268;2023-02-22T01:33:48;19.52;;;7.55;;
22646;SDS011;11490;42.726;23.268;2023-02-22T01:36:15;13.73;;;6.75;;
22646;SDS011;11490;42.726;23.268;2023-02-22T01:38:41;13.57;;;7.93;;
22646;SDS011;11490;42.726;23.268;2023-02-22T01:41:06;17.10;;;8.15;;
22646;SDS011;11490;42.726;23.268;2023-02-22T01:43:32;12.93;;;7.43;;
22646;SDS011;11490;42.726;23.268;2023-02-22T01:51:15;20.73;;;8.25;;
22646;SDS011;11490;42.726;23.268;2023-02-22T01:56:19;16.92;;;9.30;;
22646;SDS011;11490;42.726;23.268;2023-02-22T01:59:20;14.05;;;7.10;;
22646;SDS011;11490;42.726;23.268;2023-02-22T02:01:39;22.50;;;7.82;;
22646;SDS011;11490;42.726;23.268;2023-02-22T02:04:10;16.42;;;8.52;;
22646;SDS011;11490;42.726;23.268;2023-02-22T02:06:39;20.48;;;9.50;;
22646;SDS011;11490;42.726;23.268;2023-02-22T02:09:12;14.30;;;8.85;;
22646;SDS011;11490;42.726;23.268;2023-02-22T02:11:38;13.52;;;8.10;;
22646;SDS011;11490;42.726;23.268;2023-02-22T02:14:06;13.10;;;7.22;;
22646;SDS011;11490;42.726;23.268;2023-02-22T02:16:37;19.65;;;8.73;;
22646;SDS011;11490;42.726;23.268;2023-02-22T02:19:08;21.05;;;7.95;;
22646;SDS011;11490;42.726;23.268;2023-02-22T02:21:49;13.60;;;8.75;;
22646;SDS011;11490;42.726;23.268;2023-02-22T02:33:11;16.55;;;8.20;;
22646;SDS011;11490;42.726;23.268;2023-02-22T02:41:26;9.05;;;6.15;;
22646;SDS011;11490;42.726;23.268;2023-02-22T02:46:34;10.00;;;6.03;;
22646;SDS011;11490;42.726;23.268;2023-02-22T02:49:11;11.85;;;6.13;;
22646;SDS011;11490;42.726;23.268;2023-02-22T02:51:41;13.63;;;7.97;;
22646;SDS011;11490;42.726;23.268;2023-02-22T02:54:12;11.55;;;6.70;;
22646;SDS011;11490;42.726;23.268;2023-02-22T02:56:39;13.55;;;7.13;;
22646;SDS011;11490;42.726;23.268;2023-02-22T02:59:22;14.60;;;7.45;;
22646;SDS011;11490;42.726;23.268;2023-02-22T03:07:41;16.55;;;8.23;;
22646;SDS011;11490;42.726;23.268;2023-02-22T03:10:23;16.05;;;7.35;;
22646;SDS011;11490;42.726;23.268;2023-02-22T03:12:54;12.07;;;8.05;;
22646;SDS011;11490;42.726;23.268;2023-02-22T03:23:00;14.18;;;6.82;;
22646;SDS011;11490;42.726;23.268;2023-02-22T03:25:37;15.13;;;7.38;;
22646;SDS011;11490;42.726;23.268;2023-02-22T03:28:08;18.20;;;7.32;;
22646;SDS011;11490;42.726;23.268;2023-02-22T03:30:50;10.73;;;6.43;;
22646;SDS011;11490;42.726;23.268;2023-02-22T03:33:32;12.25;;;6.53;;
22646;SDS011;11490;42.726;23.268;2023-02-22T03:36:11;16.10;;;6.18;;
22646;SDS011;11490;42.726;23.268;2023-02-22T03:38:41;8.43;;;6.57;;
22646;SDS011;11490;42.726;23.268;2023-02-22T03:41:09;11.23;;;5.75;;
22646;SDS011;11490;42.726;23.268;2023-02-22T03:43:39;17.90;;;7.20;;
22646;SDS011;11490;42.726;23.268;2023-02-22T03:46:08;11.30;;;7.32;;
22646;SDS011;11490;42.726;23.268;2023-02-22T03:51:14;16.30;;;7.70;;
22646;SDS011;11490;42.726;23.268;2023-02-22T03:53:41;12.55;;;7.65;;
22646;SDS011;11490;42.726;23.268;2023-02-22T03:56:09;10.63;;;6.65;;
22646;SDS011;11490;42.726;23.268;2023-02-22T03:58:39;10.88;;;7.05;;
22646;SDS011;11490;42.726;23.268;2023-02-22T04:01:08;11.70;;;7.22;;
22646;SDS011;11490;42.726;23.268;2023-02-22T04:03:34;15.00;;;6.43;;
22646;SDS011;11490;42.726;23.268;2023-02-22T04:06:00;15.90;;;6.65;;
22646;SDS011;11490;42.726;23.268;2023-02-22T04:08:25;12.00;;;7.38;;
22646;SDS011;11490;42.726;23.268;2023-02-22T04:10:51;14.65;;;7.80;;
22646;SDS011;11490;42.726;23.268;2023-02-22T04:13:16;18.85;;;8.50;;
22646;SDS011;11490;42.726;23.268;2023-02-22T04:15:42;13.93;;;8.18;;
22646;SDS011;11490;42.726;23.268;2023-02-22T04:18:07;16.02;;;9.13;;
22646;SDS011;11490;42.726;23.268;2023-02-22T04:20:32;16.67;;;9.38;;
22646;SDS011;11490;42.726;23.268;2023-02-22T04:22:59;15.07;;;10.70;;
22646;SDS011;11490;42.726;23.268;2023-02-22T04:25:24;18.10;;;9.38;;
22646;SDS011;11490;42.726;23.268;2023-02-22T04:27:50;16.88;;;9.00;;
22646;SDS011;11490;42.726;23.268;2023-02-22T04:30:16;19.20;;;9.23;;
22646;SDS011;11490;42.726;23.268;2023-02-22T04:32:43;18.60;;;8.90;;
22646;SDS011;11490;42.726;23.268;2023-02-22T04:35:08;14.82;;;8.52;;
22646;SDS011;11490;42.726;23.268;2023-02-22T04:37:34;11.70;;;7.75;;
22646;SDS011;11490;42.726;23.268;2023-02-22T04:40:00;16.52;;;9.00;;
22646;SDS011;11490;42.726;23.268;2023-02-22T04:42:26;21.23;;;7.07;;
22646;SDS011;11490;42.726;23.268;2023-02-22T04:44:52;14.02;;;7.55;;
22646;SDS011;11490;42.726;23.268;2023-02-22T04:47:17;9.98;;;6.55;;
22646;SDS011;11490;42.726;23.268;2023-02-22T04:49:43;10.15;;;5.80;;
22646;SDS011;11490;42.726;23.268;2023-02-22T04:52:09;13.90;;;6.07;;
22646;SDS011;11490;42.726;23.268;2023-02-22T04:54:35;9.00;;;6.20;;
22646;SDS011;11490;42.726;23.268;2023-02-22T04:57:00;9.40;;;5.72;;
22646;SDS011;11490;42.726;23.268;2023-02-22T04:59:25;12.70;;;5.78;;
22646;SDS011;11490;42.726;23.268;2023-02-22T05:01:51;8.60;;;6.03;;
22646;SDS011;11490;42.726;23.268;2023-02-22T05:04:16;12.25;;;6.07;;
22646;SDS011;11490;42.726;23.268;2023-02-22T05:06:42;9.40;;;6.20;;
22646;SDS011;11490;42.726;23.268;2023-02-22T05:09:07;7.50;;;5.18;;
22646;SDS011;11490;42.726;23.268;2023-02-22T05:11:32;11.27;;;6.22;;
22646;SDS011;11490;42.726;23.268;2023-02-22T05:13:58;13.45;;;7.78;;
22646;SDS011;11490;42.726;23.268;2023-02-22T05:16:23;12.60;;;6.50;;
22646;SDS011;11490;42.726;23.268;2023-02-22T05:18:50;19.83;;;7.38;;
22646;SDS011;11490;42.726;23.268;2023-02-22T05:21:16;11.02;;;6.20;;
22646;SDS011;11490;42.726;23.268;2023-02-22T05:23:41;17.85;;;8.90;;
22646;SDS011;11490;42.726;23.268;2023-02-22T05:26:07;11.70;;;8.10;;
22646;SDS011;11490;42.726;23.268;2023-02-22T05:28:34;12.93;;;9.07;;
22646;SDS011;11490;42.726;23.268;2023-02-22T05:30:59;17.58;;;9.10;;
22646;SDS011;11490;42.726;23.268;2023-02-22T05:33:25;17.52;;;7.70;;
22646;SDS011;11490;42.726;23.268;2023-02-22T05:35:50;16.45;;;9.85;;
22646;SDS011;11490;42.726;23.268;2023-02-22T05:38:15;20.92;;;12.65;;
22646;SDS011;11490;42.726;23.268;2023-02-22T05:40:41;16.83;;;10.05;;
22646;SDS011;11490;42.726;23.268;2023-02-22T05:43:07;14.80;;;9.07;;
22646;SDS011;11490;42.726;23.268;2023-02-22T05:45:33;23.75;;;9.90;;
22646;SDS011;11490;42.726;23.268;2023-02-22T05:48:00;25.75;;;12.52;;
22646;SDS011;11490;42.726;23.268;2023-02-22T05:50:26;31.00;;;12.18;;
22646;SDS011;11490;42.726;23.268;2023-02-22T05:52:52;22.92;;;11.43;;
22646;SDS011;11490;42.726;23.268;2023-02-22T05:55:19;22.65;;;11.68;;
22646;SDS011;11490;42.726;23.268;2023-02-22T05:57:46;23.05;;;12.27;;
22646;SDS011;11490;42.726;23.268;2023-02-22T06:00:14;117.72;;;41.17;;
22646;SDS011;11490;42.726;23.268;2023-02-22T06:02:42;176.57;;;57.50;;
22646;SDS011;11490;42.726;23.268;2023-02-22T06:05:07;123.60;;;46.58;;
22646;SDS011;11490;42.726;23.268;2023-02-22T06:07:32;182.80;;;62.05;;
22646;SDS011;11490;42.726;23.268;2023-02-22T06:09:58;254.25;;;82.30;;
22646;SDS011;11490;42.726;23.268;2023-02-22T06:12:23;222.55;;;75.65;;
22646;SDS011;11490;42.726;23.268;2023-02-22T06:14:48;153.45;;;58.13;;
22646;SDS011;11490;42.726;23.268;2023-02-22T06:17:14;171.65;;;61.25;;
22646;SDS011;11490;42.726;23.268;2023-02-22T06:19:40;153.60;;;51.28;;
22646;SDS011;11490;42.726;23.268;2023-02-22T06:22:05;129.55;;;46.70;;
22646;SDS011;11490;42.726;23.268;2023-02-22T06:24:31;89.10;;;39.40;;
22646;SDS011;11490;42.726;23.268;2023-02-22T06:26:58;61.40;;;23.27;;
22646;SDS011;11490;42.726;23.268;2023-02-22T06:29:25;53.65;;;22.52;;
22646;SDS011;11490;42.726;23.268;2023-02-22T06:31:53;47.53;;;17.88;;
22646;SDS011;11490;42.726;23.268;2023-02-22T06:34:18;30.55;;;14.18;;
22646;SDS011;11490;42.726;23.268;2023-02-22T06:36:46;32.45;;;12.18;;
22646;SDS011;11490;42.726;23.268;2023-02-22T06:39:12;38.83;;;23.60;;
22646;SDS011;11490;42.726;23.268;2023-02-22T06:41:40;18.98;;;11.95;;
22646;SDS011;11490;42.726;23.268;2023-02-22T06:44:08;25.27;;;14.55;;
22646;SDS011;11490;42.726;23.268;2023-02-22T06:46:34;24.02;;;13.93;;
22646;SDS011;11490;42.726;23.268;2023-02-22T06:49:00;20.33;;;11.80;;
22646;SDS011;11490;42.726;23.268;2023-02-22T06:51:26;21.83;;;12.23;;
22646;SDS011;11490;42.726;23.268;2023-02-22T06:53:52;19.33;;;10.63;;
22646;SDS011;11490;42.726;23.268;2023-02-22T06:56:18;21.70;;;11.70;;
22646;SDS011;11490;42.726;23.268;2023-02-22T06:58:44;18.63;;;9.63;;
22646;SDS011;11490;42.726;23.268;2023-02-22T07:01:09;15.98;;;8.32;;
22646;SDS011;11490;42.726;23.268;2023-02-22T07:03:34;17.70;;;8.60;;
22646;SDS011;11490;42.726;23.268;2023-02-22T07:06:00;15.82;;;8.18;;
22646;SDS011;11490;42.726;23.268;2023-02-22T07:08:27;15.07;;;7.78;;
22646;SDS011;11490;42.726;23.268;2023-02-22T07:10:53;13.15;;;7.57;;
22646;SDS011;11490;42.726;23.268;2023-02-22T07:13:19;12.82;;;8.52;;
22646;SDS011;11490;42.726;23.268;2023-02-22T07:15:44;20.00;;;8.70;;
22646;SDS011;11490;42.726;23.268;2023-02-22T07:18:09;22.40;;;7.53;;
22646;SDS011;11490;42.726;23.268;2023-02-22T07:20:36;19.15;;;7.55;;
22646;SDS011;11490;42.726;23.268;2023-02-22T07:23:02;15.95;;;8.15;;
22646;SDS011;11490;42.726;23.268;2023-02-22T07:25:28;16.00;;;8.88;;
22646;SDS011;11490;42.726;23.268;2023-02-22T07:27:54;16.85;;;9.07;;
22646;SDS011;11490;42.726;23.268;2023-02-22T07:30:21;17.15;;;8.75;;
22646;SDS011;11490;42.726;23.268;2023-02-22T07:32:54;14.77;;;8.85;;
22646;SDS011;11490;42.726;23.268;2023-02-22T07:35:31;25.88;;;8.35;;
22646;SDS011;11490;42.726;23.268;2023-02-22T07:38:18;12.07;;;7.25;;
22646;SDS011;11490;42.726;23.268;2023-02-22T07:40:44;14.32;;;7.40;;
22646;SDS011;11490;42.726;23.268;2023-02-22T07:45:44;15.20;;;7.30;;
22646;SDS011;11490;42.726;23.268;2023-02-22T07:48:11;13.00;;;7.40;;
22646;SDS011;11490;42.726;23.268;2023-02-22T07:50:37;11.48;;;7.22;;
22646;SDS011;11490;42.726;23.268;2023-02-22T07:53:04;10.52;;;6.47;;
22646;SDS011;11490;42.726;23.268;2023-02-22T07:55:32;12.65;;;6.97;;
22646;SDS011;11490;42.726;23.268;2023-02-22T07:57:59;16.25;;;7.70;;
22646;SDS011;11490;42.726;23.268;2023-02-22T08:02:56;12.55;;;8.43;;
22646;SDS011;11490;42.726;23.268;2023-02-22T08:05:24;14.60;;;6.78;;
22646;SDS011;11490;42.726;23.268;2023-02-22T08:07:52;15.63;;;8.18;;
22646;SDS011;11490;42.726;23.268;2023-02-22T08:10:18;14.35;;;6.82;;
22646;SDS011;11490;42.726;23.268;2023-02-22T08:12:46;18.42;;;8.68;;
22646;SDS011;11490;42.726;23.268;2023-02-22T08:15:31;13.55;;;7.50;;
22646;SDS011;11490;42.726;23.268;2023-02-22T08:18:02;20.63;;;9.52;;
22646;SDS011;11490;42.726;23.268;2023-02-22T08:20:29;15.60;;;9.20;;
22646;SDS011;11490;42.726;23.268;2023-02-22T08:22:56;20.08;;;9.27;;
22646;SDS011;11490;42.726;23.268;2023-02-22T08:25:23;13.13;;;9.80;;
22646;SDS011;11490;42.726;23.268;2023-02-22T08:27:51;19.88;;;8.45;;
22646;SDS011;11490;42.726;23.268;2023-02-22T08:30:23;14.73;;;8.15;;
22646;SDS011;11490;42.726;23.268;2023-02-22T08:32:49;11.00;;;6.20;;
22646;SDS011;11490;42.726;23.268;2023-02-22T08:35:16;11.18;;;6.78;;
22646;SDS011;11490;42.726;23.268;2023-02-22T08:37:43;10.38;;;6.13;;
22646;SDS011;11490;42.726;23.268;2023-02-22T08:40:09;14.88;;;6.30;;
22646;SDS011;11490;42.726;23.268;2023-02-22T08:42:36;11.60;;;5.90;;
22646;SDS011;11490;42.726;23.268;2023-02-22T08:45:02;9.30;;;6.18;;
22646;SDS011;11490;42.726;23.268;2023-02-22T08:47:28;12.00;;;6.75;;
22646;SDS011;11490;42.726;23.268;2023-02-22T08:49:53;12.68;;;7.53;;
22646;SDS011;11490;42.726;23.268;2023-02-22T08:52:19;12.27;;;6.47;;
22646;SDS011;11490;42.726;23.268;2023-02-22T08:54:45;15.10;;;6.75;;
22646;SDS011;11490;42.726;23.268;2023-02-22T08:57:11;13.15;;;6.57;;
22646;SDS011;11490;42.726;23.268;2023-02-22T08:59:37;17.25;;;6.88;;
22646;SDS011;11490;42.726;23.268;2023-02-22T09:02:02;9.77;;;6.43;;
22646;SDS011;11490;42.726;23.268;2023-02-22T09:04:28;11.30;;;5.93;;
22646;SDS011;11490;42.726;23.268;2023-02-22T09:06:53;9.70;;;6.05;;
22646;SDS011;11490;42.726;23.268;2023-02-22T09:09:19;16.75;;;7.43;;
22646;SDS011;11490;42.726;23.268;2023-02-22T09:11:45;16.58;;;5.57;;
22646;SDS011;11490;42.726;23.268;2023-02-22T09:14:12;13.13;;;6.10;;
22646;SDS011;11490;42.726;23.268;2023-02-22T09:16:38;9.32;;;4.22;;
22646;SDS011;11490;42.726;23.268;2023-02-22T09:19:04;10.35;;;4.75;;
22646;SDS011;11490;42.726;23.268;2023-02-22T09:21:29;8.63;;;4.32;;
22646;SDS011;11490;42.726;23.268;2023-02-22T09:23:55;6.10;;;3.70;;
22646;SDS011;11490;42.726;23.268;2023-02-22T09:26:21;7.63;;;3.67;;
22646;SDS011;11490;42.726;23.268;2023-02-22T09:28:48;5.70;;;3.70;;
22646;SDS011;11490;42.726;23.268;2023-02-22T09:31:14;6.75;;;3.40;;
22646;SDS011;11490;42.726;23.268;2023-02-22T09:33:40;6.97;;;3.40;;
22646;SDS011;11490;42.726;23.268;2023-02-22T09:36:06;5.43;;;3.15;;
22646;SDS011;11490;42.726;23.268;2023-02-22T09:38:31;6.47;;;3.38;;
22646;SDS011;11490;42.726;23.268;2023-02-22T09:43:50;9.18;;;3.72;;
22646;SDS011;11490;42.726;23.268;2023-02-22T09:46:36;4.45;;;2.97;;
22646;SDS011;11490;42.726;23.268;2023-02-22T09:51:51;5.70;;;2.88;;
22646;SDS011;11490;42.726;23.268;2023-02-22T09:54:53;6.25;;;2.50;;
22646;SDS011;11490;42.726;23.268;2023-02-22T09:57:38;4.68;;;2.60;;
22646;SDS011;11490;42.726;23.268;2023-02-22T10:00:11;3.58;;;2.38;;
22646;SDS011;11490;42.726;23.268;2023-02-22T10:05:23;3.45;;;2.10;;
22646;SDS011;11490;42.726;23.268;2023-02-22T10:07:54;5.55;;;2.70;;
22646;SDS011;11490;42.726;23.268;2023-02-22T10:10:23;3.70;;;2.20;;
22646;SDS011;11490;42.726;23.268;2023-02-22T10:15:48;7.38;;;3.05;;
22646;SDS011;11490;42.726;23.268;2023-02-22T10:21:19;4.28;;;2.45;;
22646;SDS011;11490;42.726;23.268;2023-02-22T10:24:06;3.83;;;2.33;;
22646;SDS011;11490;42.726;23.268;2023-02-22T10:26:53;6.18;;;2.63;;
22646;SDS011;11490;42.726;23.268;2023-02-22T10:29:26;3.08;;;1.88;;
22646;SDS011;11490;42.726;23.268;2023-02-22T10:32:16;7.60;;;2.70;;
22646;SDS011;11490;42.726;23.268;2023-02-22T10:34:49;4.90;;;2.38;;
22646;SDS011;11490;42.726;23.268;2023-02-22T10:37:25;9.75;;;3.13;;
22646;SDS011;11490;42.726;23.268;2023-02-22T10:40:11;7.90;;;3.30;;
22646;SDS011;11490;42.726;23.268;2023-02-22T10:42:37;5.32;;;2.25;;
22646;SDS011;11490;42.726;23.268;2023-02-22T10:45:03;8.70;;;2.92;;
22646;SDS011;11490;42.726;23.268;2023-02-22T10:47:46;9.00;;;3.35;;
22646;SDS011;11490;42.726;23.268;2023-02-22T10:50:14;5.13;;;2.83;;
22646;SDS011;11490;42.726;23.268;2023-02-22T10:52:40;4.78;;;2.42;;
22646;SDS011;11490;42.726;23.268;2023-02-22T10:55:05;6.82;;;2.85;;
22646;SDS011;11490;42.726;23.268;2023-02-22T10:57:37;6.28;;;2.45;;
22646;SDS011;11490;42.726;23.268;2023-02-22T11:00:13;6.60;;;3.05;;
22646;SDS011;11490;42.726;23.268;2023-02-22T11:02:38;13.27;;;4.40;;
22646;SDS011;11490;42.726;23.268;2023-02-22T11:05:33;4.40;;;2.50;;
22646;SDS011;11490;42.726;23.268;2023-02-22T11:10:41;6.40;;;2.60;;
22646;SDS011;11490;42.726;23.268;2023-02-22T11:13:17;2.83;;;1.75;;
22646;SDS011;11490;42.726;23.268;2023-02-22T11:15:51;8.40;;;3.15;;
22646;SDS011;11490;42.726;23.268;2023-02-22T11:18:22;3.78;;;1.80;;
22646;SDS011;11490;42.726;23.268;2023-02-22T11:21:04;5.25;;;2.20;;
22646;SDS011;11490;42.726;23.268;2023-02-22T11:23:34;2.75;;;1.70;;
22646;SDS011;11490;42.726;23.268;2023-02-22T11:28:42;4.38;;;2.35;;
22646;SDS011;11490;42.726;23.268;2023-02-22T11:31:23;7.00;;;2.88;;
22646;SDS011;11490;42.726;23.268;2023-02-22T11:36:33;4.45;;;2.25;;
22646;SDS011;11490;42.726;23.268;2023-02-22T11:39:30;3.15;;;1.65;;
22646;SDS011;11490;42.726;23.268;2023-02-22T11:42:32;1.92;;;1.70;;
22646;SDS011;11490;42.726;23.268;2023-02-22T11:47:52;4.10;;;2.38;;
22646;SDS011;11490;42.726;23.268;2023-02-22T11:59:08;2.20;;;1.50;;
22646;SDS011;11490;42.726;23.268;2023-02-22T12:04:16;3.70;;;2.00;;
22646;SDS011;11490;42.726;23.268;2023-02-22T12:06:58;2.22;;;1.48;;
22646;SDS011;11490;42.726;23.268;2023-02-22T12:14:53;3.40;;;1.63;;
22646;SDS011;11490;42.726;23.268;2023-02-22T12:20:18;2.15;;;1.65;;
22646;SDS011;11490;42.726;23.268;2023-02-22T12:23:11;6.15;;;1.63;;
22646;SDS011;11490;42.726;23.268;2023-02-22T12:25:39;3.50;;;1.90;;
22646;SDS011;11490;42.726;23.268;2023-02-22T12:28:21;2.80;;;1.45;;
22646;SDS011;11490;42.726;23.268;2023-02-22T12:31:02;4.15;;;2.30;;
22646;SDS011;11490;42.726;23.268;2023-02-22T12:33:30;3.08;;;1.50;;
22646;SDS011;11490;42.726;23.268;2023-02-22T12:36:07;2.58;;;1.80;;
22646;SDS011;11490;42.726;23.268;2023-02-22T12:38:41;2.90;;;1.83;;
22646;SDS011;11490;42.726;23.268;2023-02-22T12:46:29;2.90;;;1.65;;
22646;SDS011;11490;42.726;23.268;2023-02-22T12:49:09;2.40;;;1.70;;
22646;SDS011;11490;42.726;23.268;2023-02-22T12:54:42;3.42;;;2.22;;
22646;SDS011;11490;42.726;23.268;2023-02-22T12:57:24;4.75;;;2.10;;
22646;SDS011;11490;42.726;23.268;2023-02-22T13:00:00;3.55;;;2.10;;
22646;SDS011;11490;42.726;23.268;2023-02-22T13:02:34;2.13;;;1.58;;
22646;SDS011;11490;42.726;23.268;2023-02-22T13:05:13;5.93;;;2.10;;
22646;SDS011;11490;42.726;23.268;2023-02-22T13:18:23;6.72;;;2.17;;
22646;SDS011;11490;42.726;23.268;2023-02-22T13:21:22;2.63;;;2.00;;
22646;SDS011;11490;42.726;23.268;2023-02-22T13:24:27;3.85;;;2.35;;
22646;SDS011;11490;42.726;23.268;2023-02-22T13:27:05;4.07;;;2.17;;
22646;SDS011;11490;42.726;23.268;2023-02-22T13:29:40;3.58;;;2.00;;
22646;SDS011;11490;42.726;23.268;2023-02-22T13:32:17;3.80;;;2.30;;
22646;SDS011;11490;42.726;23.268;2023-02-22T13:51:38;9.98;;;2.35;;
22646;SDS011;11490;42.726;23.268;2023-02-22T13:56:42;4.00;;;2.40;;
22646;SDS011;11490;42.726;23.268;2023-02-22T13:59:20;5.28;;;2.55;;
22646;SDS011;11490;42.726;23.268;2023-02-22T14:01:51;4.38;;;2.22;;
22646;SDS011;11490;42.726;23.268;2023-02-22T14:06:52;4.00;;;2.15;;
22646;SDS011;11490;42.726;23.268;2023-02-22T14:17:36;4.25;;;2.40;;
22646;SDS011;11490;42.726;23.268;2023-02-22T14:22:43;8.95;;;4.47;;
22646;SDS011;11490;42.726;23.268;2023-02-22T14:25:33;16.85;;;5.03;;
22646;SDS011;11490;42.726;23.268;2023-02-22T14:28:07;4.82;;;3.03;;
22646;SDS011;11490;42.726;23.268;2023-02-22T14:31:03;4.40;;;2.72;;
22646;SDS011;11490;42.726;23.268;2023-02-22T14:36:27;6.57;;;3.00;;
22646;SDS011;11490;42.726;23.268;2023-02-22T14:47:57;10.50;;;3.58;;
22646;SDS011;11490;42.726;23.268;2023-02-22T14:50:32;6.53;;;3.80;;
22646;SDS011;11490;42.726;23.268;2023-02-22T14:53:05;9.25;;;3.40;;
22646;SDS011;11490;42.726;23.268;2023-02-22T14:55:40;8.32;;;4.63;;
22646;SDS011;11490;42.726;23.268;2023-02-22T14:58:15;6.88;;;3.40;;
22646;SDS011;11490;42.726;23.268;2023-02-22T15:00:45;5.85;;;3.10;;
22646;SDS011;11490;42.726;23.268;2023-02-22T15:06:09;7.45;;;3.30;;
22646;SDS011;11490;42.726;23.268;2023-02-22T15:08:39;6.25;;;3.67;;
22646;SDS011;11490;42.726;23.268;2023-02-22T15:11:10;5.50;;;3.10;;
22646;SDS011;11490;42.726;23.268;2023-02-22T15:13:48;6.13;;;2.92;;
22646;SDS011;11490;42.726;23.268;2023-02-22T15:16:15;5.38;;;3.55;;
22646;SDS011;11490;42.726;23.268;2023-02-22T15:18:42;4.47;;;2.80;;
22646;SDS011;11490;42.726;23.268;2023-02-22T15:21:14;8.95;;;3.83;;
22646;SDS011;11490;42.726;23.268;2023-02-22T15:23:44;6.45;;;3.78;;
22646;SDS011;11490;42.726;23.268;2023-02-22T15:29:08;10.00;;;4.95;;
22646;SDS011;11490;42.726;23.268;2023-02-22T15:31:39;4.55;;;3.30;;
22646;SDS011;11490;42.726;23.268;2023-02-22T15:36:39;4.90;;;3.05;;
22646;SDS011;11490;42.726;23.268;2023-02-22T15:39:15;5.50;;;3.03;;
22646;SDS011;11490;42.726;23.268;2023-02-22T15:42:08;6.45;;;4.05;;
22646;SDS011;11490;42.726;23.268;2023-02-22T15:44:43;8.10;;;4.00;;
22646;SDS011;11490;42.726;23.268;2023-02-22T15:47:20;5.78;;;3.22;;
22646;SDS011;11490;42.726;23.268;2023-02-22T15:52:39;8.45;;;3.80;;
22646;SDS011;11490;42.726;23.268;2023-02-22T15:55:10;5.13;;;3.83;;
22646;SDS011;11490;42.726;23.268;2023-02-22T15:57:39;10.15;;;4.13;;
22646;SDS011;11490;42.726;23.268;2023-02-22T16:00:04;5.03;;;3.95;;
22646;SDS011;11490;42.726;23.268;2023-02-22T16:02:36;6.22;;;3.85;;
22646;SDS011;11490;42.726;23.268;2023-02-22T16:05:04;7.13;;;4.03;;
22646;SDS011;11490;42.726;23.268;2023-02-22T16:07:35;13.35;;;4.90;;
22646;SDS011;11490;42.726;23.268;2023-02-22T16:10:03;6.20;;;4.68;;
22646;SDS011;11490;42.726;23.268;2023-02-22T16:12:33;8.95;;;6.20;;
22646;SDS011;11490;42.726;23.268;2023-02-22T16:14:59;7.53;;;5.50;;
22646;SDS011;11490;42.726;23.268;2023-02-22T16:17:35;8.00;;;5.72;;
22646;SDS011;11490;42.726;23.268;2023-02-22T16:22:37;14.52;;;5.85;;
22646;SDS011;11490;42.726;23.268;2023-02-22T16:27:43;10.18;;;6.47;;
22646;SDS011;11490;42.726;23.268;2023-02-22T16:32:45;23.92;;;12.63;;
22646;SDS011;11490;42.726;23.268;2023-02-22T16:35:12;20.42;;;13.18;;
22646;SDS011;11490;42.726;23.268;2023-02-22T16:37:51;19.02;;;12.27;;
22646;SDS011;11490;42.726;23.268;2023-02-22T16:40:22;21.67;;;12.85;;
22646;SDS011;11490;42.726;23.268;2023-02-22T16:42:50;14.93;;;8.52;;
22646;SDS011;11490;42.726;23.268;2023-02-22T16:45:19;17.38;;;8.38;;
22646;SDS011;11490;42.726;23.268;2023-02-22T16:47:45;18.25;;;6.93;;
22646;SDS011;11490;42.726;23.268;2023-02-22T16:50:15;12.55;;;6.85;;
22646;SDS011;11490;42.726;23.268;2023-02-22T16:52:41;8.88;;;6.45;;
22646;SDS011;11490;42.726;23.268;2023-02-22T16:55:13;10.32;;;5.90;;
22646;SDS011;11490;42.726;23.268;2023-02-22T16:57:41;12.45;;;6.30;;
22646;SDS011;11490;42.726;23.268;2023-02-22T17:00:12;10.40;;;6.03;;
22646;SDS011;11490;42.726;23.268;2023-02-22T17:02:40;17.65;;;6.03;;
22646;SDS011;11490;42.726;23.268;2023-02-22T17:05:05;11.73;;;6.43;;
22646;SDS011;11490;42.726;23.268;2023-02-22T17:07:32;12.68;;;6.97;;
22646;SDS011;11490;42.726;23.268;2023-02-22T17:09:58;12.75;;;7.82;;
22646;SDS011;11490;42.726;23.268;2023-02-22T17:12:24;12.02;;;6.80;;
22646;SDS011;11490;42.726;23.268;2023-02-22T17:14:52;12.98;;;7.38;;
22646;SDS011;11490;42.726;23.268;2023-02-22T17:17:17;18.70;;;7.75;;
22646;SDS011;11490;42.726;23.268;2023-02-22T17:19:43;12.65;;;6.03;;
22646;SDS011;11490;42.726;23.268;2023-02-22T17:22:15;11.55;;;6.03;;
22646;SDS011;11490;42.726;23.268;2023-02-22T17:24:45;13.77;;;6.82;;
22646;SDS011;11490;42.726;23.268;2023-02-22T17:27:11;9.57;;;5.43;;
22646;SDS011;11490;42.726;23.268;2023-02-22T17:29:37;9.63;;;5.85;;
22646;SDS011;11490;42.726;23.268;2023-02-22T17:32:02;11.88;;;5.80;;
22646;SDS011;11490;42.726;23.268;2023-02-22T17:34:28;9.27;;;5.47;;